Time;durP1;ratioP1;P1;durP2;ratioP2;P2;SDS_P1;SDS_P2;PMS_P1;PMS_P2;Temp;Humidity;BMP_temperature;BMP_pressure;BME280_temperature;BME280_humidity;BME280_pressure;Samples;Min_cycle;Max_cycle;Signal;HPM_P1;HPM_P2
2022/08/15 00:01:06;;;;;;;8.73;7.07;;;25.30;99.90;;;;;;5028634;28;20238;-74
2022/08/15 00:03:54;;;;;;;9.90;7.70;;;25.30;99.90;;;;;;4988778;28;20204;-75
2022/08/15 00:06:42;;;;;;;8.35;7.47;;;25.30;99.90;;;;;;4995177;28;20192;-75
2022/08/15 00:09:37;;;;;;;7.55;6.85;;;25.20;99.90;;;;;;4990570;28;20288;-74
2022/08/15 00:12:22;;;;;;;7.40;6.75;;;25.20;99.90;;;;;;5002743;28;20488;-76
2022/08/15 00:15:15;;;;;;;8.85;7.03;;;25.10;99.90;;;;;;4990820;28;20192;-74
2022/08/15 00:18:02;;;;;;;7.97;7.18;;;25.10;99.90;;;;;;4991013;28;20238;-75
2022/08/15 00:20:48;;;;;;;8.27;7.40;;;25.10;99.90;;;;;;4999708;28;20259;-74
2022/08/15 00:23:33;;;;;;;8.30;7.50;;;25.10;99.90;;;;;;4991959;28;20243;-74
2022/08/15 00:26:18;;;;;;;8.30;7.50;;;25.00;99.90;;;;;;4991980;28;20201;-74
2022/08/15 00:29:04;;;;;;;7.95;6.85;;;25.00;99.90;;;;;;5005652;28;20200;-74
2022/08/15 00:31:53;;;;;;;8.23;7.43;;;25.00;99.90;;;;;;4991897;28;20315;-74
2022/08/15 00:34:42;;;;;;;7.80;7.03;;;24.90;99.90;;;;;;4990580;28;20187;-73
2022/08/15 00:37:30;;;;;;;8.82;7.53;;;24.90;99.90;;;;;;5000644;28;20197;-74
2022/08/15 00:40:22;;;;;;;7.97;7.18;;;24.90;99.90;;;;;;4980901;28;20196;-72
2022/08/15 00:43:18;;;;;;;10.60;6.95;;;24.80;99.90;;;;;;5004500;28;20258;-72
2022/08/15 00:46:06;;;;;;;8.45;7.10;;;24.80;99.90;;;;;;4981732;28;20247;-74
2022/08/15 00:49:02;;;;;;;8.20;7.40;;;24.80;99.90;;;;;;4983518;28;20730;-73
2022/08/15 00:51:52;;;;;;;7.78;6.97;;;24.80;99.90;;;;;;4999780;28;20314;-74
2022/08/15 00:54:53;;;;;;;8.40;7.63;;;24.70;99.90;;;;;;5009550;28;20332;-74
2022/08/15 00:57:44;;;;;;;8.02;7.32;;;24.70;99.90;;;;;;5006149;28;20703;-74
2022/08/15 01:00:42;;;;;;;8.68;7.45;;;24.70;99.90;;;;;;4994469;28;20223;-73
2022/08/15 01:03:31;;;;;;;9.48;7.20;;;24.60;99.90;;;;;;4990361;28;20585;-74
2022/08/15 01:06:17;;;;;;;9.30;7.43;;;24.60;99.90;;;;;;5005857;28;20271;-75
2022/08/15 01:09:03;;;;;;;9.10;8.15;;;24.60;99.90;;;;;;4989114;28;20215;-75
2022/08/15 01:11:54;;;;;;;8.45;7.65;;;24.50;99.90;;;;;;5005408;28;20799;-74
2022/08/15 01:14:41;;;;;;;9.48;7.85;;;24.50;99.90;;;;;;4988223;28;20220;-75
2022/08/15 01:17:31;;;;;;;8.50;7.72;;;24.50;99.90;;;;;;4999874;28;20246;-73
2022/08/15 01:20:30;;;;;;;9.05;7.68;;;24.50;99.90;;;;;;5003598;28;20242;-74
2022/08/15 01:23:37;;;;;;;8.15;7.32;;;24.50;99.90;;;;;;4984354;28;20759;-74
2022/08/15 01:26:24;;;;;;;8.10;7.40;;;24.50;99.90;;;;;;4998895;28;20195;-74
2022/08/15 01:29:08;;;;;;;9.40;7.45;;;24.50;99.90;;;;;;4990074;28;20675;-71
2022/08/15 01:31:59;;;;;;;8.25;7.53;;;24.40;99.90;;;;;;4998418;28;20282;-74
2022/08/15 01:34:45;;;;;;;8.93;8.02;;;24.40;99.90;;;;;;4987485;28;20181;-72
2022/08/15 01:37:31;;;;;;;8.90;7.68;;;24.30;99.90;;;;;;4995038;28;20346;-73
2022/08/15 01:40:39;;;;;;;8.55;7.78;;;24.30;99.90;;;;;;5004089;28;20184;-75
2022/08/15 01:43:32;;;;;;;10.40;8.00;;;24.30;99.90;;;;;;5011298;28;20247;-72
2022/08/15 01:46:27;;;;;;;8.77;7.97;;;24.30;99.90;;;;;;4990933;28;20723;-74
2022/08/15 01:49:27;;;;;;;8.40;7.45;;;24.30;99.90;;;;;;5004870;28;20234;-74
2022/08/15 01:52:14;;;;;;;9.57;7.63;;;24.30;99.90;;;;;;5004922;28;20270;-75
2022/08/15 01:55:03;;;;;;;8.13;7.32;;;24.20;99.90;;;;;;5008321;28;20204;-74
2022/08/15 01:57:47;;;;;;;7.63;6.93;;;24.20;99.90;;;;;;4987018;28;20213;-77
2022/08/15 02:00:32;;;;;;;8.40;7.60;;;24.20;99.90;;;;;;4997070;28;20197;-75
2022/08/15 02:03:17;;;;;;;8.00;7.20;;;24.10;99.90;;;;;;4998615;28;20220;-74
2022/08/15 02:06:12;;;;;;;8.05;7.22;;;24.10;99.90;;;;;;5002421;28;20212;-75
2022/08/15 02:08:57;;;;;;;8.13;7.13;;;24.10;99.90;;;;;;4994041;28;20294;-75
2022/08/15 02:11:42;;;;;;;8.05;7.35;;;24.10;99.90;;;;;;4996639;28;20227;-75
2022/08/15 02:14:29;;;;;;;8.00;7.25;;;24.10;99.90;;;;;;5008915;28;20659;-74
2022/08/15 02:17:16;;;;;;;8.38;7.55;;;24.10;99.90;;;;;;5010352;28;20188;-74
2022/08/15 02:20:01;;;;;;;8.65;7.57;;;24.10;99.90;;;;;;4995640;28;20192;-74
2022/08/15 02:23:11;;;;;;;10.05;7.13;;;24.10;99.90;;;;;;4997749;28;20219;-72
2022/08/15 02:25:55;;;;;;;7.60;6.90;;;24.00;99.90;;;;;;4989843;28;20235;-74
2022/08/15 02:28:41;;;;;;;7.43;6.60;;;24.00;99.90;;;;;;5009407;28;20196;-75
2022/08/15 02:31:29;;;;;;;6.63;5.93;;;23.90;99.90;;;;;;4997976;28;20219;-75
2022/08/15 02:34:14;;;;;;;6.55;6.03;;;23.90;99.90;;;;;;5002163;28;20283;-74
2022/08/15 02:36:59;;;;;;;7.53;5.82;;;23.80;99.90;;;;;;5002168;28;20268;-75
2022/08/15 02:39:45;;;;;;;7.95;6.45;;;23.90;99.90;;;;;;4994740;28;20211;-73
2022/08/15 02:42:29;;;;;;;6.70;5.65;;;23.90;99.90;;;;;;5001288;28;20298;-76
2022/08/15 02:45:17;;;;;;;6.28;5.68;;;23.80;99.90;;;;;;5009534;28;20266;-74
2022/08/15 02:48:01;;;;;;;6.53;6.03;;;23.80;99.90;;;;;;4997666;28;20302;-75
2022/08/15 02:50:46;;;;;;;7.65;5.18;;;23.80;99.90;;;;;;5000698;28;20741;-74
2022/08/15 02:53:32;;;;;;;7.22;4.97;;;23.80;99.90;;;;;;4994047;28;20251;-74
2022/08/15 02:56:22;;;;;;;5.30;4.47;;;23.70;99.90;;;;;;5010190;28;20191;-75
2022/08/15 02:59:08;;;;;;;5.53;4.40;;;23.70;99.90;;;;;;4996709;28;20271;-74
2022/08/15 03:01:52;;;;;;;6.25;4.70;;;23.60;99.90;;;;;;4997776;28;20275;-75
2022/08/15 03:04:38;;;;;;;7.43;5.15;;;23.60;99.90;;;;;;5001329;28;20680;-74
2022/08/15 03:07:22;;;;;;;5.55;4.72;;;23.60;99.90;;;;;;4998031;28;20191;-75
2022/08/15 03:10:16;;;;;;;5.30;4.80;;;23.60;99.90;;;;;;5009432;28;20223;-72
2022/08/15 03:13:10;;;;;;;6.45;4.85;;;23.60;99.90;;;;;;5008248;28;20268;-73
2022/08/15 03:15:56;;;;;;;5.70;4.90;;;23.50;99.90;;;;;;5003125;28;20664;-74
2022/08/15 03:18:42;;;;;;;5.70;5.20;;;23.50;99.90;;;;;;4998543;28;20200;-75
2022/08/15 03:21:26;;;;;;;6.03;5.53;;;23.50;99.90;;;;;;5013109;28;20200;-75
2022/08/15 03:24:12;;;;;;;5.60;5.20;;;23.40;99.90;;;;;;4996928;28;20528;-75
2022/08/15 03:26:56;;;;;;;6.28;5.68;;;23.40;99.90;;;;;;5012245;28;20196;-77
2022/08/15 03:29:40;;;;;;;5.80;5.30;;;23.30;99.90;;;;;;4996581;28;20239;-73
2022/08/15 03:32:24;;;;;;;8.68;6.18;;;23.20;99.90;;;;;;4990612;28;20243;-73
2022/08/15 03:35:10;;;;;;;7.00;5.55;;;23.20;99.90;;;;;;5009175;28;20270;-73
2022/08/15 03:37:55;;;;;;;8.40;6.55;;;23.10;99.90;;;;;;4995672;28;20770;-73
2022/08/15 03:40:43;;;;;;;8.25;6.20;;;23.10;99.90;;;;;;4996696;28;20242;-73
2022/08/15 03:43:29;;;;;;;8.13;6.18;;;23.00;99.90;;;;;;4992493;28;20220;-73
2022/08/15 03:46:17;;;;;;;7.47;6.78;;;23.00;99.90;;;;;;5001058;28;20195;-75
2022/08/15 03:49:02;;;;;;;8.85;7.63;;;23.00;99.90;;;;;;4994017;28;20284;-74
2022/08/15 03:51:46;;;;;;;8.40;7.60;;;23.00;99.90;;;;;;5010447;28;20359;-75
2022/08/15 03:54:31;;;;;;;8.07;7.28;;;22.90;99.90;;;;;;4994435;28;20188;-74
2022/08/15 03:57:15;;;;;;;8.55;7.75;;;22.80;99.90;;;;;;4997875;28;20334;-73
2022/08/15 04:00:00;;;;;;;9.95;8.65;;;22.90;99.90;;;;;;4996684;28;20230;-76
2022/08/15 04:02:48;;;;;;;9.40;8.50;;;22.80;99.90;;;;;;5005958;28;20286;-75
2022/08/15 04:05:32;;;;;;;9.93;8.93;;;22.80;99.90;;;;;;4993932;28;20199;-75
2022/08/15 04:08:19;;;;;;;10.80;9.70;;;22.80;99.90;;;;;;5004883;28;20236;-71
2022/08/15 04:11:05;;;;;;;15.25;10.15;;;22.80;99.90;;;;;;4994953;28;20179;-74
2022/08/15 04:13:51;;;;;;;10.50;9.40;;;22.70;99.90;;;;;;5007769;28;20211;-74
2022/08/15 04:16:36;;;;;;;10.10;9.10;;;22.70;99.90;;;;;;5005683;28;20219;-73
2022/08/15 04:19:21;;;;;;;10.80;9.55;;;22.70;99.90;;;;;;4999526;28;20251;-72
2022/08/15 04:22:06;;;;;;;10.82;9.73;;;22.70;99.90;;;;;;5005414;28;20282;-74
2022/08/15 04:24:51;;;;;;;11.57;10.05;;;22.60;99.90;;;;;;4994918;28;20200;-73
2022/08/15 04:27:39;;;;;;;10.30;9.38;;;22.60;99.90;;;;;;4996088;28;20212;-74
2022/08/15 04:30:27;;;;;;;10.80;9.80;;;22.60;99.90;;;;;;5002633;28;20188;-73
2022/08/15 04:33:22;;;;;;;10.93;9.82;;;22.60;99.90;;;;;;4992987;28;20247;-74
2022/08/15 04:36:11;;;;;;;10.63;9.60;;;22.60;99.90;;;;;;4989937;28;20254;-72
2022/08/15 04:38:56;;;;;;;10.57;9.57;;;22.60;99.90;;;;;;4988574;28;20243;-73
2022/08/15 04:41:40;;;;;;;10.23;9.23;;;22.60;99.90;;;;;;5007925;28;20255;-74
2022/08/15 04:44:24;;;;;;;11.00;9.90;;;22.50;99.90;;;;;;4992040;28;20257;-74
2022/08/15 04:47:08;;;;;;;10.25;9.35;;;22.50;99.90;;;;;;4996513;28;20727;-74
2022/08/15 04:49:52;;;;;;;11.38;10.30;;;22.50;99.90;;;;;;5007536;28;20219;-73
2022/08/15 04:52:51;;;;;;;10.52;9.52;;;22.40;99.90;;;;;;5002574;28;20608;-73
2022/08/15 04:55:41;;;;;;;10.45;9.55;;;22.40;99.90;;;;;;4989087;28;20573;-75
2022/08/15 04:58:25;;;;;;;10.70;9.60;;;22.40;99.90;;;;;;5005078;28;20254;-74
2022/08/15 05:01:11;;;;;;;10.93;9.82;;;22.40;99.90;;;;;;5003496;28;20244;-73
2022/08/15 05:03:55;;;;;;;12.68;10.50;;;22.40;99.90;;;;;;5004868;28;20247;-73
2022/08/15 05:06:39;;;;;;;11.73;9.70;;;22.40;99.90;;;;;;4990132;28;20200;-73
2022/08/15 05:09:23;;;;;;;10.60;9.60;;;22.40;99.90;;;;;;4999285;28;20246;-73
2022/08/15 05:12:08;;;;;;;12.23;9.93;;;22.30;99.90;;;;;;5003490;28;20258;-73
2022/08/15 05:14:52;;;;;;;10.15;9.25;;;22.40;99.90;;;;;;4993785;28;20220;-74
2022/08/15 05:17:36;;;;;;;11.63;9.35;;;22.30;99.90;;;;;;5014588;28;20187;-74
2022/08/15 05:20:21;;;;;;;10.05;9.15;;;22.30;99.90;;;;;;5003132;28;20235;-73
2022/08/15 05:23:14;;;;;;;10.88;9.18;;;22.30;99.90;;;;;;5000378;28;20354;-73
2022/08/15 05:26:00;;;;;;;13.05;10.80;;;22.20;99.90;;;;;;5004045;28;20196;-73
2022/08/15 05:28:45;;;;;;;10.50;9.50;;;22.20;99.90;;;;;;4995387;28;20227;-74
2022/08/15 05:31:29;;;;;;;11.55;9.68;;;22.20;99.90;;;;;;4992420;28;20235;-73
2022/08/15 05:34:13;;;;;;;11.35;10.25;;;22.20;99.90;;;;;;4990132;28;20218;-73
2022/08/15 05:36:58;;;;;;;10.52;9.52;;;22.20;99.90;;;;;;5003788;28;20199;-73
2022/08/15 05:39:44;;;;;;;10.93;9.07;;;22.20;99.90;;;;;;5002501;28;20327;-72
2022/08/15 05:42:45;;;;;;;11.40;10.30;;;22.20;99.90;;;;;;4987516;28;20648;-72
2022/08/15 05:45:37;;;;;;;11.75;10.32;;;22.20;99.90;;;;;;5005270;28;20191;-73
2022/08/15 05:48:32;;;;;;;12.77;10.07;;;22.20;99.90;;;;;;4993842;28;20650;-73
2022/08/15 05:51:27;;;;;;;16.85;10.55;;;22.20;99.90;;;;;;4992081;28;20192;-74
2022/08/15 05:54:39;;;;;;;10.93;9.85;;;22.10;99.90;;;;;;4997796;28;20605;-73
2022/08/15 05:57:51;;;;;;;11.18;10.18;;;22.10;99.90;;;;;;4992706;28;20191;-73
2022/08/15 06:00:38;;;;;;;11.13;10.13;;;22.10;99.90;;;;;;5010127;28;20195;-73
2022/08/15 06:03:26;;;;;;;10.30;9.27;;;22.10;99.90;;;;;;4993470;28;20260;-73
2022/08/15 06:06:13;;;;;;;11.50;9.48;;;22.10;99.90;;;;;;4992229;28;20711;-73
2022/08/15 06:09:22;;;;;;;10.30;9.27;;;22.10;99.90;;;;;;5008242;28;20243;-73
2022/08/15 06:12:18;;;;;;;12.82;10.07;;;22.10;99.90;;;;;;5004173;28;20599;-73
2022/08/15 06:15:22;;;;;;;11.52;10.38;;;22.10;99.90;;;;;;4999718;28;20692;-73
2022/08/15 06:18:09;;;;;;;10.55;9.38;;;22.20;99.90;;;;;;4994835;28;20679;-73
2022/08/15 06:21:06;;;;;;;9.88;8.88;;;22.30;99.90;;;;;;5007967;28;20242;-73
2022/08/15 06:24:14;;;;;;;10.73;9.63;;;22.30;99.90;;;;;;5011099;28;20272;-73
2022/08/15 06:27:11;;;;;;;12.20;9.93;;;22.30;99.90;;;;;;5008354;28;20203;-74
2022/08/15 06:30:07;;;;;;;13.98;9.73;;;22.30;99.90;;;;;;5007972;28;20246;-73
2022/08/15 06:33:06;;;;;;;14.95;10.27;;;22.40;99.90;;;;;;5017791;28;20226;-74
2022/08/15 06:36:16;;;;;;;10.68;9.13;;;22.40;99.90;;;;;;5005980;28;20235;-70
2022/08/15 06:39:35;;;;;;;10.45;9.32;;;22.40;99.90;;;;;;4995236;28;20192;-71
2022/08/15 06:42:35;;;;;;;10.93;9.05;;;22.40;99.90;;;;;;4991840;28;20588;-71
2022/08/15 06:45:35;;;;;;;10.95;9.85;;;22.50;99.90;;;;;;5000165;28;20270;-71
2022/08/15 06:48:24;;;;;;;10.48;9.48;;;22.50;99.90;;;;;;4995165;28;20223;-70
2022/08/15 06:51:11;;;;;;;10.43;9.48;;;22.50;99.90;;;;;;4999450;28;20196;-71
2022/08/15 06:53:57;;;;;;;10.82;9.70;;;22.50;99.90;;;;;;4995435;28;20246;-71
2022/08/15 06:56:51;;;;;;;10.57;9.48;;;22.50;99.90;;;;;;5009080;28;20329;-71
2022/08/15 06:59:48;;;;;;;12.77;9.73;;;22.50;99.90;;;;;;5002774;28;20180;-71
2022/08/15 07:02:49;;;;;;;12.45;9.80;;;22.60;99.90;;;;;;4998297;28;20243;-71
2022/08/15 07:06:03;;;;;;;10.68;9.57;;;22.60;99.90;;;;;;5001464;28;20259;-71
2022/08/15 07:09:07;;;;;;;11.23;9.65;;;22.70;99.90;;;;;;4991889;28;20230;-71
2022/08/15 07:12:11;;;;;;;10.88;9.77;;;22.70;99.90;;;;;;5007383;28;20220;-71
2022/08/15 07:15:25;;;;;;;11.20;9.85;;;22.70;99.90;;;;;;5010809;28;20219;-71
2022/08/15 07:18:19;;;;;;;12.35;9.68;;;22.70;99.90;;;;;;4980922;28;20200;-71
2022/08/15 07:21:10;;;;;;;11.35;10.15;;;22.80;99.90;;;;;;5002635;28;20197;-71
2022/08/15 07:24:06;;;;;;;10.57;9.57;;;22.90;99.90;;;;;;4990923;28;20247;-72
2022/08/15 07:27:06;;;;;;;11.35;10.25;;;22.90;99.90;;;;;;5010946;28;20192;-71
2022/08/15 07:30:06;;;;;;;11.43;9.18;;;23.00;99.90;;;;;;4989297;28;20219;-71
2022/08/15 07:32:53;;;;;;;12.70;10.48;;;23.10;99.90;;;;;;4996902;28;20270;-71
2022/08/15 07:35:38;;;;;;;13.55;10.25;;;23.20;99.90;;;;;;4991725;28;20247;-71
2022/08/15 07:38:28;;;;;;;10.63;9.63;;;23.30;99.90;;;;;;4992458;28;20277;-72
2022/08/15 07:41:23;;;;;;;10.50;9.38;;;23.40;99.90;;;;;;4989217;28;20482;-71
2022/08/15 07:44:30;;;;;;;10.68;9.75;;;23.40;99.90;;;;;;5009646;28;20196;-71
2022/08/15 07:47:26;;;;;;;12.20;9.63;;;23.50;99.90;;;;;;5000020;28;20648;-71
2022/08/15 07:50:10;;;;;;;13.65;9.65;;;23.50;99.90;;;;;;5002041;28;20632;-72
2022/08/15 07:53:18;;;;;;;10.93;9.35;;;23.60;99.90;;;;;;4999124;28;20223;-71
2022/08/15 07:56:14;;;;;;;10.50;9.60;;;23.70;99.90;;;;;;4997381;28;20794;-71
2022/08/15 07:59:33;;;;;;;10.13;9.23;;;23.80;99.90;;;;;;5011111;28;20243;-72
2022/08/15 08:02:33;;;;;;;10.93;9.65;;;23.90;99.90;;;;;;4974895;28;20206;-71
2022/08/15 08:05:24;;;;;;;10.07;9.15;;;23.90;99.90;;;;;;4989420;28;20274;-71
2022/08/15 08:08:11;;;;;;;10.57;9.40;;;24.00;99.90;;;;;;5004666;28;20220;-71
2022/08/15 08:11:12;;;;;;;10.70;9.73;;;24.10;99.90;;;;;;4998753;28;20204;-72
2022/08/15 08:14:18;;;;;;;11.05;9.32;;;24.20;99.90;;;;;;4999781;28;20235;-72
2022/08/15 08:17:10;;;;;;;10.70;9.20;;;24.30;99.90;;;;;;4993078;28;20184;-72
2022/08/15 08:20:23;;;;;;;9.60;8.70;;;24.40;99.90;;;;;;5009831;28;20208;-72
2022/08/15 08:23:13;;;;;;;10.45;9.02;;;24.50;99.90;;;;;;5005496;28;20290;-72
2022/08/15 08:26:17;;;;;;;10.93;8.73;;;24.60;99.90;;;;;;5006177;28;20313;-71
2022/08/15 08:29:27;;;;;;;10.02;8.45;;;24.70;99.90;;;;;;4996830;28;20219;-72
2022/08/15 08:32:17;;;;;;;11.40;8.80;;;24.80;99.90;;;;;;5010353;28;20223;-72
2022/08/15 08:35:21;;;;;;;10.98;8.90;;;24.90;99.90;;;;;;5003383;28;20331;-72
2022/08/15 08:38:17;;;;;;;8.93;8.13;;;25.10;99.90;;;;;;4998227;28;20187;-72
2022/08/15 08:41:34;;;;;;;9.13;8.32;;;25.30;99.90;;;;;;5008933;28;20192;-72
2022/08/15 08:44:40;;;;;;;9.32;8.30;;;25.50;99.90;;;;;;4994575;28;20222;-72
2022/08/15 08:47:58;;;;;;;8.45;7.65;;;25.60;99.90;;;;;;5008065;28;20200;-72
2022/08/15 08:51:02;;;;;;;8.52;7.75;;;25.60;99.90;;;;;;5002844;28;20246;-72
2022/08/15 08:54:18;;;;;;;8.93;8.02;;;25.80;99.90;;;;;;4995044;28;20788;-72
2022/08/15 08:57:10;;;;;;;9.38;8.48;;;25.90;99.90;;;;;;4969034;28;20204;-72
2022/08/15 09:00:12;;;;;;;8.15;7.35;;;26.10;99.90;;;;;;4991122;28;20247;-72
2022/08/15 09:03:17;;;;;;;11.23;8.07;;;26.20;99.90;;;;;;4998469;28;20223;-72
2022/08/15 09:06:02;;;;;;;8.68;7.78;;;26.30;99.90;;;;;;5007835;28;20192;-72
2022/08/15 09:08:51;;;;;;;8.25;7.45;;;26.40;99.90;;;;;;4993354;28;20191;-72
2022/08/15 09:11:47;;;;;;;7.60;6.95;;;26.50;99.90;;;;;;4996461;28;20587;-72
2022/08/15 09:14:35;;;;;;;10.13;7.50;;;26.60;99.90;;;;;;5005785;28;20612;-72
2022/08/15 09:17:21;;;;;;;8.82;7.78;;;26.60;99.90;;;;;;5005604;28;20217;-72
2022/08/15 09:20:16;;;;;;;8.90;7.90;;;26.80;99.90;;;;;;5006445;28;20195;-72
2022/08/15 09:23:03;;;;;;;8.95;7.32;;;26.90;99.90;;;;;;5006884;28;20251;-72
2022/08/15 09:26:01;;;;;;;7.78;6.97;;;27.10;99.90;;;;;;5006281;28;20280;-72
2022/08/15 09:29:02;;;;;;;10.60;7.55;;;27.20;99.90;;;;;;4992540;28;20259;-72
2022/08/15 09:31:52;;;;;;;7.93;7.13;;;27.30;99.90;;;;;;4994847;28;20227;-72
2022/08/15 09:34:46;;;;;;;8.52;6.68;;;27.40;99.90;;;;;;5005876;28;20196;-72
2022/08/15 09:37:47;;;;;;;7.25;6.63;;;27.60;99.90;;;;;;4985940;28;20248;-72
2022/08/15 09:40:53;;;;;;;7.63;6.80;;;27.60;99.90;;;;;;5007241;28;20232;-72
2022/08/15 09:44:00;;;;;;;7.03;6.30;;;27.70;99.90;;;;;;4991737;28;20224;-72
2022/08/15 09:47:13;;;;;;;6.25;5.65;;;27.70;99.90;;;;;;5006205;28;20303;-72
2022/08/15 09:50:06;;;;;;;8.45;6.43;;;27.70;99.90;;;;;;4995219;28;20203;-72
2022/08/15 09:53:17;;;;;;;9.40;6.47;;;27.80;99.90;;;;;;4997149;28;20282;-72
2022/08/15 09:56:10;;;;;;;6.97;6.22;;;27.90;99.90;;;;;;4991069;28;20196;-72
2022/08/15 09:59:09;;;;;;;7.85;6.68;;;28.00;99.90;;;;;;4988988;28;20340;-72
2022/08/15 10:01:59;;;;;;;9.10;6.53;;;28.00;99.90;;;;;;4992651;28;20252;-72
2022/08/15 10:04:49;;;;;;;11.02;6.80;;;28.10;99.90;;;;;;4999152;28;20331;-72
2022/08/15 10:07:51;;;;;;;7.35;6.65;;;28.10;99.90;;;;;;5004575;28;20196;-72
2022/08/15 10:10:52;;;;;;;7.30;6.70;;;28.10;99.90;;;;;;5004014;28;20199;-72
2022/08/15 10:13:40;;;;;;;7.78;6.80;;;28.20;99.90;;;;;;4997685;28;20247;-72
2022/08/15 10:16:42;;;;;;;6.68;5.95;;;28.30;99.90;;;;;;5002280;28;20574;-72
2022/08/15 10:19:36;;;;;;;6.90;6.20;;;28.40;99.90;;;;;;4994987;28;20711;-72
2022/08/15 10:22:22;;;;;;;7.65;6.85;;;28.40;99.90;;;;;;4989904;28;20244;-72
2022/08/15 10:25:18;;;;;;;7.10;6.43;;;28.40;99.90;;;;;;5002233;28;20247;-72
2022/08/15 10:28:05;;;;;;;12.63;6.95;;;28.50;99.90;;;;;;4988489;28;20201;-72
2022/08/15 10:31:02;;;;;;;7.50;6.28;;;28.50;99.90;;;;;;5013952;28;20680;-72
2022/08/15 10:33:53;;;;;;;8.65;6.80;;;28.60;99.90;;;;;;4996719;28;20308;-72
2022/08/15 10:36:37;;;;;;;7.70;6.70;;;28.70;99.90;;;;;;4996740;28;20716;-72
2022/08/15 10:39:41;;;;;;;7.32;6.70;;;28.70;99.90;;;;;;5007889;28;20247;-72
2022/08/15 10:42:49;;;;;;;7.40;6.63;;;28.70;99.90;;;;;;5010375;28;20227;-72
2022/08/15 10:45:55;;;;;;;9.95;6.30;;;28.80;99.90;;;;;;4994242;28;20199;-72
2022/08/15 10:49:01;;;;;;;7.43;6.68;;;28.90;99.90;;;;;;5008539;28;20675;-72
2022/08/15 10:51:53;;;;;;;7.32;6.53;;;28.90;99.90;;;;;;4993262;28;20270;-72
2022/08/15 10:55:08;;;;;;;6.72;6.00;;;29.00;99.90;;;;;;5000565;28;20203;-72
2022/08/15 10:58:24;;;;;;;6.85;6.15;;;29.00;99.90;;;;;;4993676;28;20280;-72
2022/08/15 11:01:17;;;;;;;6.82;6.22;;;29.20;99.90;;;;;;5010385;28;20215;-72
2022/08/15 11:04:07;;;;;;;6.50;5.90;;;29.30;99.90;;;;;;5008751;28;20210;-72
2022/08/15 11:06:52;;;;;;;6.32;5.78;;;29.30;99.90;;;;;;5008122;28;20396;-72
2022/08/15 11:09:36;;;;;;;7.15;6.45;;;29.40;99.90;;;;;;5006403;28;20731;-72
2022/08/15 11:12:22;;;;;;;6.97;6.32;;;29.40;99.90;;;;;;5009749;28;20274;-72
2022/08/15 11:15:19;;;;;;;8.57;6.22;;;29.40;99.90;;;;;;5008456;28;20235;-72
2022/08/15 11:18:08;;;;;;;8.20;6.10;;;29.50;99.90;;;;;;5009870;28;20231;-72
2022/08/15 11:20:55;;;;;;;6.88;5.90;;;29.50;99.90;;;;;;4995768;28;20223;-72
2022/08/15 11:23:41;;;;;;;6.80;6.10;;;29.60;99.90;;;;;;4988475;28;20232;-72
2022/08/15 11:26:29;;;;;;;6.15;5.65;;;29.60;99.90;;;;;;5007668;28;20714;-72
2022/08/15 11:29:23;;;;;;;6.63;6.03;;;29.70;99.90;;;;;;5009579;28;20216;-72
2022/08/15 11:32:11;;;;;;;6.63;5.28;;;29.70;99.90;;;;;;5008660;28;20311;-72
2022/08/15 11:34:57;;;;;;;6.05;5.47;;;29.80;99.90;;;;;;5003310;28;20573;-72
2022/08/15 11:37:43;;;;;;;7.95;5.88;;;29.80;99.90;;;;;;4997952;28;20208;-72
2022/08/15 11:40:28;;;;;;;6.85;5.80;;;29.80;99.90;;;;;;5009479;28;20266;-72
2022/08/15 11:43:16;;;;;;;6.43;5.85;;;29.90;99.90;;;;;;5007848;28;20290;-72
2022/08/15 11:46:00;;;;;;;7.15;5.65;;;30.00;99.90;;;;;;4999053;28;20335;-72
2022/08/15 11:48:49;;;;;;;6.18;5.63;;;30.10;99.90;;;;;;5002681;28;20204;-72
2022/08/15 11:51:40;;;;;;;6.32;5.78;;;30.10;99.90;;;;;;4994440;28;20271;-73
2022/08/15 11:54:24;;;;;;;6.07;5.57;;;30.10;99.90;;;;;;4990891;28;20209;-73
2022/08/15 11:57:09;;;;;;;6.10;5.55;;;30.10;99.90;;;;;;4997726;28;20188;-73
2022/08/15 12:00:08;;;;;;;5.88;4.85;;;30.10;99.90;;;;;;5002122;28;20184;-72
2022/08/15 12:02:53;;;;;;;7.15;6.05;;;30.10;99.90;;;;;;4992367;28;20251;-72
2022/08/15 12:05:39;;;;;;;6.10;5.60;;;30.10;99.90;;;;;;4993356;28;20204;-72
2022/08/15 12:08:29;;;;;;;9.52;4.97;;;30.10;99.90;;;;;;4992260;28;20247;-72
2022/08/15 12:11:13;;;;;;;7.15;5.90;;;30.20;99.90;;;;;;5009234;28;20188;-73
2022/08/15 12:14:11;;;;;;;6.10;5.50;;;30.10;99.90;;;;;;5005090;28;20215;-73
2022/08/15 12:17:05;;;;;;;8.95;5.40;;;30.10;99.90;;;;;;4992098;28;20191;-73
2022/08/15 12:19:55;;;;;;;7.20;5.55;;;30.00;99.90;;;;;;4990839;28;20279;-73
2022/08/15 12:22:42;;;;;;;6.20;5.10;;;30.10;99.90;;;;;;5001384;28;20220;-73
2022/08/15 12:25:26;;;;;;;6.15;5.22;;;30.10;99.90;;;;;;4999071;28;20196;-73
2022/08/15 12:28:10;;;;;;;7.78;5.07;;;30.10;99.90;;;;;;4992316;28;20200;-73
2022/08/15 12:31:02;;;;;;;6.68;5.50;;;30.00;99.90;;;;;;4998744;28;20216;-73
2022/08/15 12:33:59;;;;;;;7.20;6.00;;;30.00;99.90;;;;;;4991166;28;20287;-72
2022/08/15 12:36:44;;;;;;;8.98;5.18;;;29.90;99.90;;;;;;5007827;28;20231;-73
2022/08/15 12:39:35;;;;;;;9.45;4.70;;;29.90;99.90;;;;;;4989491;28;20239;-73
2022/08/15 12:42:34;;;;;;;7.60;4.80;;;29.80;99.90;;;;;;5007198;28;20215;-73
2022/08/15 12:45:18;;;;;;;8.32;4.60;;;29.70;99.90;;;;;;5001124;28;20636;-73
2022/08/15 12:48:22;;;;;;;9.30;4.22;;;29.60;99.90;;;;;;5005668;28;20303;-73
2022/08/15 12:51:09;;;;;;;7.05;3.88;;;29.40;99.90;;;;;;4995038;28;20190;-73
2022/08/15 12:53:54;;;;;;;6.28;4.30;;;29.30;99.90;;;;;;5002055;28;20263;-72
2022/08/15 12:56:39;;;;;;;7.10;4.07;;;29.10;99.90;;;;;;5007509;28;20236;-73
2022/08/15 12:59:24;;;;;;;4.43;4.03;;;29.00;99.90;;;;;;4991221;28;20220;-73
2022/08/15 13:02:12;;;;;;;13.95;4.07;;;28.90;99.90;;;;;;4999353;28;20263;-73
2022/08/15 13:04:58;;;;;;;6.35;4.10;;;28.80;99.90;;;;;;5008094;28;20654;-73
2022/08/15 13:07:42;;;;;;;5.85;3.90;;;28.70;99.90;;;;;;4992737;28;20196;-72
2022/08/15 13:10:27;;;;;;;5.28;4.22;;;28.70;99.90;;;;;;4993212;28;20271;-73
2022/08/15 13:13:12;;;;;;;8.13;4.18;;;28.70;99.90;;;;;;4987008;28;20702;-73
2022/08/15 13:15:56;;;;;;;7.55;4.03;;;28.60;99.90;;;;;;4996670;28;20288;-73
2022/08/15 13:18:40;;;;;;;4.50;3.70;;;28.70;99.90;;;;;;4994348;28;20200;-73
2022/08/15 13:24:27;;;;;;;4.22;3.47;;;28.60;99.90;;;;;;5002908;28;20219;-72
2022/08/15 13:27:11;;;;;;;4.47;3.55;;;28.60;99.90;;;;;;4989673;28;20184;-73
2022/08/15 13:29:55;;;;;;;5.10;3.10;;;28.50;99.90;;;;;;4988889;28;20570;-73
2022/08/15 13:32:40;;;;;;;6.45;3.03;;;28.50;99.90;;;;;;4999652;28;20219;-72
2022/08/15 13:35:24;;;;;;;2.70;2.50;;;28.60;99.90;;;;;;5003945;28;20239;-72
2022/08/15 13:38:08;;;;;;;4.57;2.80;;;28.60;99.90;;;;;;5011701;28;20203;-72
2022/08/15 13:40:54;;;;;;;4.97;2.92;;;28.60;99.90;;;;;;4992675;28;20207;-72
2022/08/15 13:43:43;;;;;;;4.70;2.40;;;28.50;99.90;;;;;;4999935;28;20335;-73
2022/08/15 13:46:28;;;;;;;3.65;2.80;;;28.50;99.90;;;;;;4999045;28;20189;-74
2022/08/15 13:49:14;;;;;;;2.90;2.60;;;28.40;99.90;;;;;;5005487;28;20199;-73
2022/08/15 13:51:58;;;;;;;4.15;2.40;;;28.40;99.90;;;;;;5007299;28;20236;-73
2022/08/15 13:54:43;;;;;;;3.00;2.53;;;28.50;99.90;;;;;;4996960;28;20263;-73
2022/08/15 13:57:27;;;;;;;3.65;2.38;;;28.50;99.90;;;;;;5005818;28;20243;-73
2022/08/15 14:00:12;;;;;;;10.30;3.25;;;28.40;99.90;;;;;;5005129;28;20672;-73
2022/08/15 14:02:56;;;;;;;3.95;2.70;;;28.40;99.90;;;;;;4999517;28;20292;-73
2022/08/15 14:05:40;;;;;;;2.22;2.03;;;28.50;99.90;;;;;;5004845;28;20199;-73
2022/08/15 14:08:24;;;;;;;2.92;2.33;;;28.60;99.90;;;;;;5003677;28;20193;-73
2022/08/15 14:11:09;;;;;;;3.03;2.20;;;28.60;99.90;;;;;;5009872;28;20228;-73
2022/08/15 14:13:54;;;;;;;2.50;2.15;;;28.60;99.90;;;;;;5006209;28;20246;-73
2022/08/15 14:16:41;;;;;;;3.65;2.53;;;28.50;99.90;;;;;;5005314;28;20280;-73
2022/08/15 14:19:26;;;;;;;3.78;2.67;;;28.50;99.90;;;;;;5005693;28;20711;-74
2022/08/15 14:22:10;;;;;;;3.35;2.60;;;28.40;99.90;;;;;;4995132;28;20228;-73
2022/08/15 14:24:56;;;;;;;2.80;2.60;;;28.30;99.90;;;;;;5007327;28;20188;-73
2022/08/15 14:27:44;;;;;;;2.83;2.60;;;28.20;99.90;;;;;;5005737;28;20185;-73
2022/08/15 14:30:28;;;;;;;3.20;3.00;;;28.20;99.90;;;;;;5006312;28;20285;-73
2022/08/15 14:33:13;;;;;;;3.13;2.50;;;28.30;99.90;;;;;;4991973;28;20224;-73
2022/08/15 14:35:58;;;;;;;5.45;3.03;;;28.30;99.90;;;;;;4997129;28;20199;-73
2022/08/15 14:38:42;;;;;;;3.03;2.72;;;28.30;99.90;;;;;;4995399;28;20672;-73
2022/08/15 14:41:27;;;;;;;3.70;2.50;;;28.30;99.90;;;;;;4995438;28;20187;-73
2022/08/15 14:44:12;;;;;;;2.90;2.60;;;28.30;99.90;;;;;;4992871;28;20204;-73
2022/08/15 14:46:57;;;;;;;4.90;2.63;;;28.40;99.90;;;;;;4998075;28;20224;-73
2022/08/15 14:49:44;;;;;;;2.78;2.58;;;28.30;99.90;;;;;;4994060;28;20684;-74